createdAt,value
2019-04-05T00:00:06.285Z,106.07
2019-04-05T00:02:33.428Z,106.93
2019-04-05T00:05:00.684Z,114.77
2019-04-05T00:07:28.024Z,106.83
2019-04-05T00:09:55.664Z,103.63
2019-04-05T00:12:22.896Z,107.37
2019-04-05T00:14:50.197Z,114.77
2019-04-05T00:17:17.461Z,108.50
2019-04-05T00:19:45.062Z,101.23
2019-04-05T00:22:12.271Z,115.97
2019-04-05T00:24:39.673Z,115.07
2019-04-05T00:27:07.187Z,110.37
2019-04-05T00:29:34.436Z,117.43
2019-04-05T00:32:01.689Z,102.00
2019-04-05T00:34:28.976Z,115.30
2019-04-05T00:36:56.268Z,118.00
2019-04-05T00:39:23.549Z,107.90
2019-04-05T00:41:50.780Z,119.93
2019-04-05T00:44:18.028Z,133.97
2019-04-05T00:46:45.289Z,143.00
2019-04-05T00:49:12.605Z,144.50
2019-04-05T00:51:39.893Z,119.93
2019-04-05T00:54:07.149Z,133.30
2019-04-05T00:56:34.445Z,129.63
2019-04-05T00:59:01.749Z,159.03
2019-04-05T01:01:28.997Z,143.10
2019-04-05T01:03:56.216Z,155.20
2019-04-05T01:06:23.456Z,172.23
2019-04-05T01:08:50.835Z,175.43
2019-04-05T01:11:18.092Z,170.97
2019-04-05T01:13:45.404Z,171.40
2019-04-05T01:16:12.631Z,174.17
2019-04-05T01:18:40.193Z,186.30
2019-04-05T01:21:10.028Z,177.70
2019-04-05T01:23:37.384Z,170.60
2019-04-05T01:26:05.179Z,182.93
2019-04-05T01:28:33.005Z,171.00
2019-04-05T01:31:00.605Z,170.77
2019-04-05T01:33:27.857Z,173.83
2019-04-05T01:35:55.088Z,173.23
2019-04-05T01:38:22.483Z,171.50
2019-04-05T01:40:50.016Z,199.73
2019-04-05T01:43:17.816Z,184.03
2019-04-05T01:45:53.564Z,188.93
2019-04-05T01:48:14.728Z,192.10
2019-04-05T01:50:41.978Z,182.90
2019-04-05T01:53:09.251Z,197.50
2019-04-05T01:55:36.512Z,183.23
2019-04-05T01:58:03.769Z,179.13
2019-04-05T02:00:31.061Z,192.50
2019-04-05T02:02:58.790Z,187.73
2019-04-05T02:05:26.393Z,191.00
2019-04-05T02:07:53.754Z,184.93
2019-04-05T02:10:20.999Z,182.63
2019-04-05T02:12:48.250Z,192.80
2019-04-05T02:15:40.856Z,204.00
2019-04-05T02:18:08.095Z,183.90
2019-04-05T02:20:35.320Z,196.23
2019-04-05T02:23:02.573Z,198.37
2019-04-05T02:25:29.925Z,204.17
2019-04-05T02:27:57.156Z,195.67
2019-04-05T02:30:25.221Z,192.63
2019-04-05T02:32:52.455Z,210.53
2019-04-05T02:35:19.699Z,190.57
2019-04-05T02:37:47.004Z,228.37
2019-04-05T02:40:15.521Z,217.20
2019-04-05T02:42:45.461Z,194.30
2019-04-05T02:45:13.328Z,208.73
2019-04-05T02:47:43.803Z,220.17
2019-04-05T02:50:11.412Z,232.90
2019-04-05T02:52:41.710Z,207.00
2019-04-05T02:55:10.320Z,197.37
2019-04-05T02:57:38.023Z,196.00
2019-04-05T03:00:05.592Z,201.80
2019-04-05T03:02:34.154Z,201.07
2019-04-05T03:05:01.627Z,208.30
2019-04-05T03:07:29.284Z,206.87
2019-04-05T03:09:57.491Z,210.80
2019-04-05T03:12:25.339Z,189.50
2019-04-05T03:14:53.544Z,182.63
2019-04-05T03:17:21.664Z,172.10
2019-04-05T03:19:50.911Z,184.47
2019-04-05T03:22:18.961Z,176.60
2019-04-05T03:24:47.017Z,179.33
2019-04-05T03:27:19.833Z,180.37
2019-04-05T03:29:47.150Z,181.70
2019-04-05T03:32:15.223Z,175.40
2019-04-05T03:34:44.236Z,160.90
2019-04-05T03:37:11.837Z,167.70
2019-04-05T03:39:39.494Z,185.03
2019-04-05T03:42:07.433Z,151.23
2019-04-05T03:44:35.462Z,179.03
2019-04-05T03:47:02.794Z,177.73
2019-04-05T03:49:30.073Z,174.33
2019-04-05T03:51:57.422Z,181.07
2019-04-05T03:54:24.794Z,194.43
2019-04-05T03:56:52.173Z,170.90
2019-04-05T03:59:19.677Z,172.37
2019-04-05T04:01:46.989Z,201.47
2019-04-05T04:04:14.384Z,181.07
2019-04-05T04:06:41.609Z,193.97
2019-04-05T04:09:08.935Z,196.30
2019-04-05T04:11:36.573Z,185.07
2019-04-05T04:14:04.368Z,193.93
2019-04-05T04:16:31.668Z,199.77
2019-04-05T04:18:59.629Z,186.40
2019-04-05T04:21:40.392Z,171.13
2019-04-05T04:24:08.361Z,194.40
2019-04-05T04:26:35.729Z,198.37
2019-04-05T04:29:03.222Z,189.60
2019-04-05T04:31:30.562Z,189.17
2019-04-05T04:33:58.026Z,187.80
2019-04-05T04:36:25.481Z,196.37
2019-04-05T04:38:53.329Z,184.27
2019-04-05T04:41:20.536Z,188.73
2019-04-05T04:43:47.988Z,184.40
2019-04-05T04:46:15.769Z,175.43
2019-04-05T04:48:43.541Z,180.73
2019-04-05T04:51:11.740Z,192.13
2019-04-05T04:53:40.428Z,169.60
2019-04-05T04:56:07.751Z,183.23
2019-04-05T04:58:35.167Z,206.97
2019-04-05T05:01:02.756Z,192.53
2019-04-05T05:03:30.117Z,209.33
2019-04-05T05:05:57.633Z,191.30
2019-04-05T05:08:25.097Z,185.07
2019-04-05T05:10:52.480Z,166.57
2019-04-05T05:13:19.899Z,192.73
2019-04-05T05:15:47.483Z,199.23
2019-04-05T05:18:14.825Z,198.93
2019-04-05T05:20:42.878Z,179.50
2019-04-05T05:23:10.988Z,185.30
2019-04-05T05:25:38.321Z,174.30
2019-04-05T05:28:05.795Z,189.93
2019-04-05T05:30:33.233Z,185.93
2019-04-05T05:33:00.610Z,183.27
2019-04-05T05:35:27.842Z,171.03
2019-04-05T05:37:55.342Z,187.80
2019-04-05T05:40:34.134Z,197.60
2019-04-05T05:42:51.998Z,180.60
2019-04-05T05:45:19.818Z,194.93
2019-04-05T05:47:52.142Z,169.50
2019-04-05T05:50:16.481Z,163.67
2019-04-05T05:52:43.821Z,159.03
2019-04-05T05:55:11.144Z,168.63
2019-04-05T05:57:38.393Z,156.03
2019-04-05T06:00:07.437Z,162.33
2019-04-05T06:02:36.488Z,159.43
2019-04-05T06:05:03.984Z,153.43
2019-04-05T06:07:31.335Z,166.20
2019-04-05T06:09:59.751Z,161.40
2019-04-05T06:12:26.928Z,168.70
2019-04-05T06:14:54.032Z,165.40
2019-04-05T06:17:21.281Z,159.80
2019-04-05T06:19:48.525Z,168.13
2019-04-05T06:22:15.710Z,139.03
2019-04-05T06:24:42.965Z,167.87
2019-04-05T06:27:10.250Z,150.13
2019-04-05T06:29:37.392Z,182.20
2019-04-05T06:32:04.673Z,150.00
2019-04-05T06:34:31.928Z,150.57
2019-04-05T06:36:59.226Z,153.60
2019-04-05T06:39:26.665Z,147.37
2019-04-05T06:41:54.087Z,151.77
2019-04-05T06:44:21.283Z,143.03
2019-04-05T06:46:48.661Z,148.10
2019-04-05T06:49:15.739Z,126.13
2019-04-05T06:51:42.889Z,179.20
2019-04-05T06:54:10.237Z,147.33
2019-04-05T06:56:37.332Z,140.63
2019-04-05T06:59:04.710Z,146.43
2019-04-05T07:01:32.073Z,153.83
2019-04-05T07:03:59.378Z,159.63
2019-04-05T07:06:26.645Z,139.73
2019-04-05T07:08:54.288Z,148.03
2019-04-05T07:11:21.748Z,163.63
2019-04-05T07:13:49.001Z,156.67
2019-04-05T07:16:16.244Z,166.50
2019-04-05T07:18:43.771Z,148.30
2019-04-05T07:21:11.045Z,144.33
2019-04-05T07:23:38.299Z,149.00
2019-04-05T07:26:05.573Z,156.20
2019-04-05T07:28:33.269Z,183.63
2019-04-05T07:31:00.488Z,190.73
2019-04-05T07:33:27.495Z,158.63
2019-04-05T07:35:54.912Z,164.37
2019-04-05T07:38:22.433Z,170.93
2019-04-05T07:40:49.599Z,149.87
2019-04-05T07:43:16.981Z,149.17
2019-04-05T07:45:45.977Z,153.23
2019-04-05T07:48:13.097Z,152.43
2019-04-05T07:50:40.272Z,161.67
2019-04-05T07:53:07.625Z,142.53
2019-04-05T07:55:34.929Z,153.40
2019-04-05T07:58:02.136Z,153.40
2019-04-05T08:00:47.917Z,156.37
2019-04-05T08:03:15.189Z,149.73
2019-04-05T08:05:42.673Z,151.00
2019-04-05T08:08:14.208Z,149.37
2019-04-05T08:10:43.865Z,154.33
2019-04-05T08:13:13.743Z,151.77
2019-04-05T08:15:41.970Z,139.73
2019-04-05T08:18:09.200Z,134.47
2019-04-05T08:20:36.465Z,118.63
2019-04-05T08:23:03.801Z,131.43
2019-04-05T08:25:31.059Z,140.87
2019-04-05T08:27:58.296Z,136.27
2019-04-05T08:30:25.587Z,136.70
2019-04-05T08:32:52.635Z,143.47
2019-04-05T08:35:19.660Z,122.13
2019-04-05T08:37:47.080Z,124.33
2019-04-05T08:40:14.656Z,139.47
2019-04-05T08:42:42.102Z,142.07
2019-04-05T08:45:09.419Z,125.53
2019-04-05T08:47:36.683Z,136.47
2019-04-05T08:50:04.029Z,131.87
2019-04-05T08:52:31.167Z,131.23
2019-04-05T08:54:58.344Z,115.90
2019-04-05T08:57:25.555Z,122.73
2019-04-05T08:59:53.427Z,123.37
2019-04-05T09:02:20.700Z,118.37
2019-04-05T09:04:48.304Z,119.07
2019-04-05T09:07:15.515Z,127.97
2019-04-05T09:09:42.972Z,127.77
2019-04-05T09:12:10.984Z,119.17
2019-04-05T09:14:38.284Z,129.97
2019-04-05T09:17:05.527Z,130.63
2019-04-05T09:19:32.576Z,127.20
2019-04-05T09:21:59.871Z,121.13
2019-04-05T09:24:27.000Z,123.80
2019-04-05T09:26:54.577Z,119.07
2019-04-05T09:29:21.899Z,122.33
2019-04-05T09:31:49.157Z,135.27
2019-04-05T09:34:17.012Z,115.07
2019-04-05T09:36:44.437Z,136.30
2019-04-05T09:39:15.343Z,133.23
2019-04-05T09:41:40.751Z,116.77
2019-04-05T09:44:07.951Z,124.47
2019-04-05T09:46:45.889Z,120.20
2019-04-05T09:49:04.074Z,134.73
2019-04-05T09:51:31.383Z,110.80
2019-04-05T09:53:58.623Z,118.23
2019-04-05T09:56:25.769Z,136.03
2019-04-05T09:58:53.153Z,137.90
2019-04-05T10:01:20.282Z,124.50
2019-04-05T10:03:47.543Z,131.93
2019-04-05T10:06:14.930Z,146.70
2019-04-05T10:08:44.442Z,143.80
2019-04-05T10:11:11.685Z,143.47
2019-04-05T10:13:38.808Z,133.80
2019-04-05T10:16:06.023Z,140.87
2019-04-05T10:18:33.154Z,127.07
2019-04-05T10:21:00.397Z,116.00
2019-04-05T10:23:27.526Z,123.00
2019-04-05T10:25:54.667Z,128.67
2019-04-05T10:28:21.672Z,76.40
2019-04-05T10:30:51.730Z,124.23
2019-04-05T10:33:17.817Z,128.50
2019-04-05T10:35:45.082Z,122.60
2019-04-05T10:38:12.200Z,117.73
2019-04-05T10:40:39.323Z,130.20
2019-04-05T10:43:06.574Z,125.47
2019-04-05T10:45:33.817Z,135.53
2019-04-05T10:48:00.953Z,149.97
2019-04-05T10:50:28.225Z,96.20
2019-04-05T10:52:55.348Z,128.50
2019-04-05T10:55:22.667Z,129.30
2019-04-05T10:57:49.813Z,119.63
2019-04-05T11:00:18.029Z,103.03
2019-04-05T11:02:45.418Z,84.80
2019-04-05T11:05:14.109Z,135.93
2019-04-05T11:07:41.243Z,103.73
2019-04-05T11:10:08.735Z,120.23
2019-04-05T11:12:36.043Z,112.37
2019-04-05T11:15:04.566Z,104.70
2019-04-05T11:17:31.923Z,101.90
2019-04-05T11:19:58.951Z,126.13
2019-04-05T11:22:26.048Z,109.77
2019-04-05T11:24:53.088Z,105.10
2019-04-05T11:27:20.208Z,106.33
2019-04-05T11:29:47.459Z,100.83
2019-04-05T11:32:14.712Z,102.10
2019-04-05T11:34:42.620Z,131.40
2019-04-05T11:37:10.072Z,110.10
2019-04-05T11:39:37.292Z,105.97
2019-04-05T11:42:04.510Z,83.17
2019-04-05T11:44:32.503Z,111.20
2019-04-05T11:47:00.016Z,100.47
2019-04-05T11:49:28.932Z,102.57
2019-04-05T11:51:56.155Z,77.50
2019-04-05T11:54:23.334Z,94.50
2019-04-05T11:56:50.465Z,103.27
2019-04-05T11:59:17.849Z,98.40
2019-04-05T12:01:55.459Z,90.47
2019-04-05T12:04:22.474Z,97.97
2019-04-05T12:06:51.811Z,112.37
2019-04-05T12:09:18.443Z,98.17
2019-04-05T12:11:46.482Z,66.30
2019-04-05T12:14:13.693Z,115.30
2019-04-05T12:16:41.646Z,96.53
2019-04-05T12:19:08.915Z,97.10
2019-04-05T12:21:36.007Z,108.37
2019-04-05T12:24:03.240Z,105.77
2019-04-05T12:26:30.468Z,103.00
2019-04-05T12:28:57.711Z,91.90
2019-04-05T12:31:25.953Z,102.80
2019-04-05T12:33:53.104Z,78.63
2019-04-05T12:36:22.101Z,120.47
2019-04-05T12:38:49.340Z,88.17
2019-04-05T12:41:18.200Z,71.47
2019-04-05T12:43:45.620Z,58.77
2019-04-05T12:46:15.922Z,62.53
2019-04-05T12:48:45.469Z,97.80
2019-04-05T12:51:15.696Z,86.93
2019-04-05T12:53:43.391Z,89.03
2019-04-05T12:56:10.552Z,83.37
2019-04-05T12:58:37.823Z,69.83
2019-04-05T13:01:08.063Z,92.93
2019-04-05T13:03:33.934Z,96.47
2019-04-05T13:06:01.126Z,97.73
2019-04-05T13:08:28.496Z,100.90
2019-04-05T13:10:56.836Z,81.40
2019-04-05T13:13:26.848Z,93.13
2019-04-05T13:15:53.652Z,81.60
2019-04-05T13:18:20.703Z,103.60
2019-04-05T13:20:47.953Z,63.30
2019-04-05T13:23:15.049Z,99.93
2019-04-05T13:25:42.163Z,83.70
2019-04-05T13:28:13.545Z,78.90
2019-04-05T13:30:38.314Z,52.63
2019-04-05T13:33:05.548Z,88.47
2019-04-05T13:35:32.634Z,81.50
2019-04-05T13:38:00.684Z,77.30
2019-04-05T13:40:29.617Z,113.40
2019-04-05T13:43:01.678Z,92.00
2019-04-05T13:45:27.027Z,89.37
2019-04-05T13:47:54.024Z,96.47
2019-04-05T13:50:21.329Z,91.03
2019-04-05T13:52:48.564Z,91.80
2019-04-05T13:55:15.845Z,69.03
2019-04-05T13:57:43.108Z,79.43
2019-04-05T14:00:12.235Z,91.90
2019-04-05T14:02:39.434Z,85.30
2019-04-05T14:05:06.869Z,101.70
2019-04-05T14:07:34.311Z,82.07
2019-04-05T14:10:01.720Z,58.00
2019-04-05T14:12:31.412Z,89.60
2019-04-05T14:14:58.936Z,83.10
2019-04-05T14:17:25.921Z,52.83
2019-04-05T14:19:53.080Z,81.80
2019-04-05T14:22:22.246Z,69.80
2019-04-05T14:24:50.428Z,60.43
2019-04-05T14:27:17.894Z,82.80
2019-04-05T14:29:47.538Z,77.53
2019-04-05T14:32:21.072Z,85.10
2019-04-05T14:34:42.936Z,70.53
2019-04-05T14:37:10.191Z,71.37
2019-04-05T14:39:37.663Z,68.60
2019-04-05T14:42:09.867Z,74.73
2019-04-05T14:44:33.818Z,54.60
2019-04-05T14:47:00.970Z,60.03
2019-04-05T14:49:30.755Z,70.23
2019-04-05T14:52:01.227Z,66.70
2019-04-05T14:54:30.168Z,64.57
2019-04-05T14:56:57.515Z,63.60
2019-04-05T14:59:27.189Z,69.40
2019-04-05T15:01:54.271Z,69.80
2019-04-05T15:04:21.321Z,74.30
2019-04-05T15:06:50.303Z,64.63
2019-04-05T15:09:17.340Z,74.23
2019-04-05T15:11:44.439Z,72.17
2019-04-05T15:14:11.668Z,76.10
2019-04-05T15:16:38.892Z,58.97
2019-04-05T15:19:06.094Z,72.70
2019-04-05T15:21:34.882Z,63.43
2019-04-05T15:24:02.482Z,70.30
2019-04-05T15:26:29.715Z,66.00
2019-04-05T15:28:56.845Z,61.07
2019-04-05T15:31:26.492Z,82.10
2019-04-05T15:33:52.759Z,88.47
2019-04-05T15:36:19.866Z,68.27
2019-04-05T15:38:46.892Z,76.87
2019-04-05T15:41:13.906Z,70.77
2019-04-05T15:43:41.083Z,78.50
2019-04-05T15:46:08.304Z,76.23
2019-04-05T15:48:35.342Z,66.60
2019-04-05T15:51:02.551Z,72.10
2019-04-05T15:53:32.047Z,55.03
2019-04-05T15:55:58.732Z,74.47
2019-04-05T15:58:25.858Z,71.33
2019-04-05T16:00:53.096Z,68.43
2019-04-05T16:03:20.250Z,72.10
2019-04-05T16:05:47.442Z,72.60
2019-04-05T16:08:16.741Z,80.87
2019-04-05T16:10:45.623Z,76.87
2019-04-05T16:13:13.123Z,67.90
2019-04-05T16:15:40.139Z,74.50
2019-04-05T16:18:07.443Z,79.53
2019-04-05T16:20:34.721Z,68.40
2019-04-05T16:23:01.855Z,72.00
2019-04-05T16:25:29.098Z,77.43
2019-04-05T16:27:56.546Z,70.03
2019-04-05T16:30:25.241Z,75.27
2019-04-05T16:32:52.207Z,78.90
2019-04-05T16:35:19.504Z,76.43
2019-04-05T16:37:46.628Z,81.50
2019-04-05T16:40:14.456Z,77.77
2019-04-05T16:42:41.500Z,78.07
2019-04-05T16:45:09.752Z,76.10
2019-04-05T16:47:37.065Z,81.43
2019-04-05T16:50:05.149Z,82.60
2019-04-05T16:52:44.133Z,85.77
2019-04-05T16:55:01.403Z,84.97
2019-04-05T16:57:28.736Z,79.70
2019-04-05T16:59:55.984Z,80.27
2019-04-05T17:02:22.979Z,83.27
2019-04-05T17:04:50.083Z,77.17
2019-04-05T17:07:17.133Z,68.23
2019-04-05T17:09:44.301Z,84.10
2019-04-05T17:12:11.403Z,73.47
2019-04-05T17:14:38.648Z,73.87
2019-04-05T17:17:06.139Z,80.30
2019-04-05T17:19:33.172Z,70.50
2019-04-05T17:22:00.330Z,69.23
2019-04-05T17:24:29.677Z,59.30
2019-04-05T17:26:56.663Z,61.90
2019-04-05T17:29:23.867Z,69.23
2019-04-05T17:31:52.406Z,65.33
2019-04-05T17:34:19.624Z,55.73
2019-04-05T17:36:46.757Z,81.50
2019-04-05T17:39:14.272Z,67.40
2019-04-05T17:41:41.412Z,64.13
2019-04-05T17:44:08.660Z,53.40
2019-04-05T17:46:35.712Z,64.20
2019-04-05T17:49:02.907Z,79.00
2019-04-05T17:51:30.606Z,84.90
2019-04-05T17:53:58.066Z,51.97
2019-04-05T17:56:25.695Z,66.00
2019-04-05T17:58:53.650Z,67.23
2019-04-05T18:01:20.728Z,59.97
2019-04-05T18:03:47.888Z,64.37
2019-04-05T18:06:14.879Z,58.30
2019-04-05T18:08:42.098Z,72.07
2019-04-05T18:11:09.339Z,67.07
2019-04-05T18:13:36.554Z,50.77
2019-04-05T18:16:03.831Z,82.53
2019-04-05T18:18:30.871Z,68.80
2019-04-05T18:20:58.117Z,70.43
2019-04-05T18:23:25.892Z,67.37
2019-04-05T18:25:53.323Z,80.87
2019-04-05T18:28:21.960Z,76.03
2019-04-05T18:30:49.584Z,81.13
2019-04-05T18:33:16.817Z,68.43
2019-04-05T18:35:43.979Z,70.43
2019-04-05T18:38:11.084Z,67.50
2019-04-05T18:40:40.189Z,76.77
2019-04-05T18:43:08.364Z,70.70
2019-04-05T18:45:35.852Z,78.83
2019-04-05T18:48:03.095Z,89.73
2019-04-05T18:50:30.330Z,99.00
2019-04-05T18:52:57.608Z,81.47
2019-04-05T18:55:25.078Z,72.23
2019-04-05T18:57:52.279Z,59.87
2019-04-05T19:00:19.704Z,65.30
2019-04-05T19:02:47.169Z,60.57
2019-04-05T19:05:14.410Z,60.77
2019-04-05T19:07:41.676Z,60.17
2019-04-05T19:10:10.897Z,62.77
2019-04-05T19:12:39.950Z,71.17
2019-04-05T19:15:07.664Z,56.73
2019-04-05T19:17:35.080Z,48.17
2019-04-05T19:20:02.704Z,50.07
2019-04-05T19:22:30.117Z,58.70
2019-04-05T19:24:57.426Z,51.27
2019-04-05T19:27:24.710Z,46.60
2019-04-05T19:29:51.985Z,42.67
2019-04-05T19:49:44.413Z,44.40
2019-04-05T19:52:13.181Z,40.63
2019-04-05T19:54:40.755Z,40.03
2019-04-05T19:57:07.937Z,36.53
2019-04-05T19:59:35.388Z,33.57
2019-04-05T20:02:02.724Z,34.00
2019-04-05T20:04:30.001Z,35.83
2019-04-05T20:06:58.589Z,34.73
2019-04-05T20:09:26.882Z,32.30
2019-04-05T20:11:54.130Z,33.70
2019-04-05T20:14:21.376Z,34.60
2019-04-05T20:16:48.625Z,34.20
2019-04-05T20:19:15.913Z,41.07
2019-04-05T20:21:43.157Z,37.13
2019-04-05T20:24:14.296Z,32.17
2019-04-05T20:26:40.408Z,43.33
2019-04-05T20:29:07.649Z,41.87
2019-04-05T20:31:35.231Z,45.30
2019-04-05T20:34:02.403Z,36.00
2019-04-05T20:36:29.677Z,34.23
2019-04-05T20:38:56.919Z,40.80
2019-04-05T20:41:24.234Z,40.10
2019-04-05T20:43:51.576Z,37.87
2019-04-05T20:46:21.359Z,35.70
2019-04-05T20:48:48.662Z,40.17
2019-04-05T20:51:16.010Z,50.03
2019-04-05T20:53:43.344Z,44.20
2019-04-05T20:56:10.651Z,44.20
2019-04-05T20:58:38.269Z,44.77
2019-04-05T21:01:05.829Z,51.53
2019-04-05T21:03:33.092Z,44.23
2019-04-05T21:06:02.558Z,60.10
2019-04-05T21:08:29.924Z,47.90
2019-04-05T21:10:57.119Z,52.57
2019-04-05T21:13:24.656Z,52.80
2019-04-05T21:15:51.931Z,51.93
2019-04-05T21:18:19.212Z,53.37
2019-04-05T21:20:46.613Z,46.00
2019-04-05T21:23:14.040Z,47.73
2019-04-05T21:25:41.280Z,45.67
2019-04-05T21:28:08.556Z,45.37
2019-04-05T21:30:35.848Z,54.70
2019-04-05T21:33:03.187Z,48.97
2019-04-05T21:35:30.739Z,53.30
2019-04-05T21:37:57.950Z,45.43
2019-04-05T21:40:25.092Z,40.40
2019-04-05T21:42:52.348Z,46.00
2019-04-05T21:45:19.604Z,41.73
2019-04-05T21:47:46.872Z,38.83
2019-04-05T21:50:14.003Z,43.60
2019-04-05T21:52:41.343Z,62.90
2019-04-05T21:55:08.548Z,41.77
2019-04-05T21:57:35.944Z,43.53
2019-04-05T22:00:06.036Z,39.93
2019-04-05T22:02:33.180Z,45.73
2019-04-05T22:05:01.397Z,44.93
2019-04-05T22:07:29.120Z,47.10
2019-04-05T22:09:56.393Z,44.03
2019-04-05T22:12:23.639Z,42.93
2019-04-05T22:14:50.921Z,41.00
2019-04-05T22:17:18.187Z,46.10
2019-04-05T22:19:45.720Z,41.87
2019-04-05T22:22:13.028Z,48.30
2019-04-05T22:24:40.306Z,48.40
2019-04-05T22:27:07.557Z,41.50
2019-04-05T22:29:34.803Z,44.63
2019-04-05T22:32:02.042Z,50.10
2019-04-05T22:34:29.359Z,43.77
2019-04-05T22:36:56.625Z,42.40
2019-04-05T22:39:23.948Z,43.37
2019-04-05T22:41:51.209Z,47.20
2019-04-05T22:44:18.459Z,43.13
2019-04-05T22:46:45.771Z,41.73
2019-04-05T22:49:12.879Z,42.63
2019-04-05T22:51:40.175Z,46.17
2019-04-05T22:54:07.496Z,43.73
2019-04-05T22:56:34.802Z,52.17
2019-04-05T22:59:02.081Z,46.40
2019-04-05T23:01:29.376Z,45.33
2019-04-05T23:03:56.908Z,46.37
2019-04-05T23:06:24.167Z,43.17
2019-04-05T23:08:51.845Z,50.53
2019-04-05T23:11:19.061Z,46.93
2019-04-05T23:13:46.359Z,46.37
2019-04-05T23:16:13.637Z,50.77
2019-04-05T23:18:40.881Z,48.80
2019-04-05T23:21:08.133Z,53.60
2019-04-05T23:23:35.477Z,42.63
2019-04-05T23:26:02.764Z,58.00
2019-04-05T23:28:30.176Z,51.20
2019-04-05T23:30:57.473Z,55.27
2019-04-05T23:33:24.634Z,56.57
2019-04-05T23:35:51.971Z,49.23
2019-04-05T23:38:19.414Z,50.13
2019-04-05T23:40:46.673Z,51.17
2019-04-05T23:43:13.941Z,46.50
2019-04-05T23:45:41.225Z,56.30
2019-04-05T23:48:08.844Z,46.60
2019-04-05T23:50:35.900Z,46.00
2019-04-05T23:53:03.147Z,56.77
2019-04-05T23:55:33.391Z,64.57
2019-04-05T23:57:59.810Z,57.87
